Weather observations for the past three days for
Falfurrias, Brooks County Airport
Imperial (Metric)
Date Time (cdt) Wind (mph) Vis. (mi.) Weather Sky Cond. Temperature (ºF) Relative Humidity Wind Chill (°F) Heat Index (°F) Pressure Precipitation (in)
Air Dwpt 6 hour altimeter (in) sea level (mb) 1 hr 3 hr 6 hr
Max. Min.
07 06:55 NE 13 9.00 Overcast OVC012 70.3 67.1 90% 29.88 0.0
07 06:35 NE 12 9.00 Overcast OVC011 70.7 67.3 89% 29.87 0.0
07 06:15 NE 9 10.00 Overcast OVC011 70.7 66.9 88% 29.86 0.0
07 05:55 NE 12 10.00 Overcast OVC011 71.1 67.3 88% 29.85 0.0
07 05:35 NE 12 10.00 Overcast OVC011 71.2 67.5 88% 29.86 0.0
07 05:15 NE 13 10.00 Overcast OVC011 71.4 68 89% 29.86 0.0
07 04:55 N 17 10.00 NULL NULL 71.1 69.1 94% 29.83 0.0
07 04:35 NE 10 10.00 NULL NULL 71.4 70.2 96% 29.86 0.0
07 04:15 NE 12 7.00 Light Rain NULL 71.6 71.1 98% 29.86 0.0
07 03:55 NE 12 8.00 Light Rain NULL 73 72.1 97% 29.85 0.0
07 03:35 NE 7 3.00 Fog/Mist NULL 78.6 78.3 99% 82 29.84 0.0
07 03:15 NE 6 5.00 Fog/Mist NULL 78.6 78.4 99% 83 29.85 0.0
07 02:55 NE 5 3.00 Light Rain Fog/Mist NULL 78.6 78.1 98% 82 29.84 0.0
07 02:35 NE 3 4.00 Light Rain Fog/Mist NULL 78.6 78.1 98% 82 29.84 0.0
07 02:15 NE 5 6.00 Fog/Mist NULL 78.6 78.1 98% 82 29.84 0.0
07 01:55 NE 5 7.00 NULL NULL 78.8 78.3 98% 83 29.84 0.0
07 01:35 NE 6 9.00 NULL NULL 78.8 78.3 98% 83 29.84 0.0
07 01:15 E 6 10.00 NULL NULL 79 78.3 98% 84 29.84 0.0
07 00:55 E 5 9.00 NULL NULL 79 78.3 98% 84 29.84 0.0
07 00:35 E 3 10.00 NULL NULL 78.8 78.3 98% 83 29.84 0.0
07 00:15 E 6 10.00 NULL NULL 78.6 78.4 99% 83 29.84 0.0
06 23:55 E 5 10.00 NULL NULL 78.6 78.6 100% 83 29.84 0.0
06 23:35 NE 6 10.00 NULL NULL 78.3 78.3 100% 81 29.84 0.0
06 23:15 NE 6 10.00 NULL NULL 77.7 77.7 100% 80 29.83 0.0
06 22:55 NE 5 10.00 NULL NULL 78.1 76.3 94% 81 29.83 0.0
06 22:35 E 5 10.00 NULL NULL 78.4 76.6 94% 82 29.82 0.0
06 22:15 E 5 10.00 Fair CLR 79 76.8 93% 83 29.81 0.0
06 21:55 NE 6 10.00 Fair CLR 79.5 77.4 93% 85 29.8 0.0
06 21:35 E 6 10.00 Fair CLR 80.2 77.9 93% 87 29.79 0.0
06 21:15 E 7 10.00 Fair CLR 80.8 77.9 91% 88 29.78 0.0
06 20:55 E 8 10.00 Fair CLR 81.3 77.9 89% 89 29.77 0.0
06 20:35 E 7 10.00 Fair CLR 82.2 78.3 88% 92 29.76 0.0
06 20:15 E 8 10.00 Fair CLR 83.1 78.4 86% 94 29.75 0.0
06 19:55 E 10 10.00 Fair CLR 84.4 78.6 83% 96 29.73 0.0
06 19:35 E 8 10.00 Fair CLR 85.5 79 81% 99 29.73 0.0
06 19:15 E 9 10.00 Fair CLR 86.4 79.2 79% 100 29.72 0.0
06 18:55 E 10 10.00 Fair CLR 88.2 79.3 75% 104 29.71 0.0
06 18:35 E 10 10.00 Fair CLR 87.6 79.2 76% 103 29.7 0.0
06 18:15 E 9 10.00 A Few Clouds FEW027 90 79.3 71% 107 29.7 0.0
06 17:55 E 10 10.00 A Few Clouds FEW031 91.4 79.3 68% 109 29.69 0.0
06 17:35 NE 10 10.00 A Few Clouds FEW032 91.8 79 66% 109 29.69 0.0
06 17:15 E 8 10.00 A Few Clouds FEW033 93.6 79 63% 111 29.69 0.0
06 16:55 NE 6 10.00 Fair CLR 93.6 78.3 61% 110 29.7 0.0
06 16:35 NE 6 10.00 Fair CLR 90.3 79.2 70% 107 29.7 0.0
06 16:15 N 8 10.00 A Few Clouds FEW350 93.2 78.8 63% 110 29.7 0.0
06 15:55 NE 8 10.00 A Few Clouds FEW350 92.5 79.2 65% 110 29.71 0.0
06 15:35 NE 10 10.00 Fair CLR 93.2 78.1 62% 109 29.71 0.0
06 15:15 E 5 9.00 A Few Clouds FEW350 92.3 77.5 62% 107 29.72 0.0
06 14:55 NE 3 10.00 A Few Clouds FEW350 91.4 77.9 65% 106 29.73 0.0
06 14:35 NE 3 10.00 Fair CLR 91 77.9 65% 106 29.73 0.0
06 14:15 N 5 10.00 Fair CLR 91.6 77.4 63% 106 29.74 0.0
06 13:55 Calm 10.00 Fair CLR 90.3 77.5 66% 104 29.74 0.0
06 13:35 S 7 9.00 Fair CLR 90 77 66% 103 29.74 0.0
06 13:15 SE 7 10.00 Partly Cloudy FEW290 SCT350 90.7 77.2 65% 104 29.75 0.0
06 12:55 Vrbl 7 10.00 A Few Clouds FEW300 89.4 76.8 66% 102 29.75 0.0
06 12:35 Vrbl 3 10.00 Fair CLR 86.9 76.5 71% 98 29.76 0.0
06 12:15 SW 7 10.00 Partly Cloudy FEW025 SCT340 88.5 76.6 68% 100 29.76 0.0
06 11:55 SE 6 10.00 Partly Cloudy SCT022 SCT350 88.2 77.7 71% 101 29.75 0.0
06 11:35 S 7 10.00 Partly Cloudy FEW024 SCT370 85.8 76.6 74% 96 29.75 0.0
06 11:15 S 7 9.00 A Few Clouds FEW015 83.1 77.4 83% 93 29.75 0.0
06 10:55 S 14 9.00 Mostly Cloudy SCT015 BKN360 81.9 76.8 85% 90 29.75 0.0
06 10:35 S 15 7.00 Mostly Cloudy BKN014 81.1 76.6 86% 88 29.76 0.0
06 10:15 SE 14 7.00 Mostly Cloudy BKN013 80.6 76.6 88% 87 29.75 0.0
06 09:55 S 13 7.00 Mostly Cloudy BKN013 80.2 76.8 89% 86 29.75 0.0
06 09:35 SE 9 7.00 NULL NULL 79.2 76.6 92% 84 29.75 0.0
06 09:15 SE 6 7.00 NULL NULL 78.8 76.8 94% 83 29.75 0.0
06 08:55 SE 6 6.00 Fog/Mist NULL 78.1 76.3 94% 81 29.75 0.0
06 08:35 E 6 6.00 Fog/Mist NULL 78.1 75.9 93% 81 29.75 0.0
06 08:15 SE 7 8.00 NULL NULL 78.3 75.7 92% 81 29.75 0.0
06 07:55 E 6 8.00 Mostly Cloudy BKN018 78.4 75.9 92% 82 29.75 0.0
06 07:35 E 6 8.00 Partly Cloudy SCT020 78.1 76.1 94% 81 29.74 0.0
06 07:15 E 6 8.00 Partly Cloudy SCT021 77.5 75.9 95% 79 29.73 0.0
06 06:55 E 5 8.00 A Few Clouds FEW024 77.5 75.7 94% 79 29.72 0.0
06 06:35 E 5 10.00 A Few Clouds FEW016 77.5 75.7 94% 79 29.72 0.0
06 06:15 E 5 10.00 A Few Clouds FEW016 78.3 75 90% 81 29.71 0.0
06 05:55 NE 6 10.00 Fair CLR 78.4 75.2 90% 82 29.71 0.0
06 05:35 E 3 8.00 Fair CLR 78.6 75.2 89% 82 29.7 0.0
06 05:15 E 5 7.00 Fair CLR 78.8 75.2 89% 82 29.71 0.0
06 04:55 SE 5 8.00 Fair CLR 78.8 75.2 89% 82 29.7 0.0
06 04:35 SE 7 8.00 Fair CLR 78.8 75.2 89% 82 29.7 0.0
06 04:15 SE 9 8.00 A Few Clouds FEW015 78.8 75.2 89% 82 29.7 0.0
06 03:55 S 7 9.00 A Few Clouds FEW016 78.8 75.2 89% 82 29.7 0.0
06 03:35 S 8 9.00 A Few Clouds FEW015 78.6 75.2 89% 82 29.69 0.0
06 03:15 S 10 10.00 A Few Clouds FEW016 78.8 75.2 89% 82 29.7 0.0
06 02:55 SE 13 10.00 Partly Cloudy SCT016 SCT024 78.8 75 88% 82 29.7 0.0
06 02:35 SE 9 10.00 Mostly Cloudy BKN016 BKN027 78.8 75 88% 82 29.7 0.0
06 02:15 SE 8 10.00 Mostly Cloudy SCT015 BKN028 79 75 88% 83 29.7 0.0
06 01:55 SE 13 10.00 Mostly Cloudy BKN016 BKN022 BKN029 79 75.2 88% 83 29.7 0.0
06 01:35 SE 12 10.00 Mostly Cloudy BKN016 BKN023 78.8 75.2 89% 82 29.71 0.0
06 00:55 SE 7 10.00 Partly Cloudy SCT029 78.6 75.7 91% 82 29.73 0.0
06 00:35 SE 8 10.00 Mostly Cloudy BKN027 78.6 75.7 91% 82 29.72 0.0
06 00:15 SE 7 10.00 Overcast OVC023 77.9 75.7 93% 80 29.73 0.0
05 23:55 SE 8 10.00 Mostly Cloudy BKN020 77.9 75.6 93% 80 29.73 0.0
05 23:35 SE 8 10.00 Fair CLR 77.7 75.7 94% 80 29.73 0.0
05 23:15 SE 9 10.00 Fair CLR 77.9 75.7 93% 80 29.73 0.0
05 22:55 SE 9 10.00 Fair CLR 78.1 75.6 92% 81 29.73 0.0
05 22:35 SE 8 10.00 Fair CLR 78.4 75.7 91% 82 29.72 0.0
05 22:15 SE 13 10.00 Fair CLR 78.8 75.6 90% 82 29.71 0.0
05 21:55 SE 10 10.00 Fair CLR 79.2 75.6 89% 83 29.71 0.0
05 21:35 SE 10 10.00 Fair CLR 79.7 75.6 87% 84 29.7 0.0
05 21:15 SE 10 G 21 10.00 Fair CLR 80.2 75.4 85% 86 29.69 0.0
05 20:55 SE 10 10.00 Fair CLR 81 75.4 83% 87 29.68 0.0
05 20:35 SE 13 G 21 10.00 Fair CLR 81.9 75.6 81% 89 29.67 0.0
05 20:15 SE 12 10.00 Fair CLR 82.8 75.7 79% 91 29.66 0.0
05 19:55 Calm 10.00 Fair CLR 84 75.7 76% 93 29.65 0.0
05 19:35 SE 10 G 21 9.00 Fair CLR 85.1 75.9 74% 95 29.65 0.0
05 19:15 SE 13 9.00 Fair CLR 86.5 75.9 71% 97 29.64 0.0
05 18:55 SE 14 G 22 10.00 A Few Clouds FEW047 88.5 75.9 66% 100 29.63 0.0
05 18:35 SE 14 10.00 A Few Clouds FEW049 90.1 75.9 63% 102 29.63 0.0
05 18:15 SE 10 10.00 Fair CLR 91.6 76.1 61% 104 29.62 0.0
05 17:55 SE 13 10.00 Fair CLR 93.2 72.7 51% 102 29.62 0.0
05 17:35 SE 13 G 22 10.00 Fair CLR 93.7 72 49% 102 29.62 0.0
05 17:15 S 12 G 20 10.00 Fair CLR 94.1 72 49% 102 29.63 0.0
05 16:55 SE 17 G 22 10.00 Fair CLR 93.6 72.9 51% 103 29.63 0.0
05 16:35 S 14 G 23 10.00 Fair CLR 94.1 72.5 50% 103 29.64 0.0
05 16:15 S 14 10.00 Fair CLR 94.3 72.5 49% 103 29.65 0.0
05 15:55 S 14 G 20 10.00 Fair CLR 94.3 72.3 49% 103 29.66 0.0
05 15:35 S 12 G 22 10.00 Fair CLR 94.1 72.5 50% 103 29.67 0.0
05 15:15 S 13 10.00 A Few Clouds FEW049 93.6 72.7 51% 102 29.68 0.0
05 14:55 S 14 G 18 10.00 Partly Cloudy SCT049 93.2 72.1 50% 101 29.68 0.0
05 14:35 SE 14 G 21 10.00 A Few Clouds FEW049 92.7 72.3 52% 101 29.69 0.0
05 14:15 SE 16 G 20 10.00 A Few Clouds FEW046 92.8 72.3 51% 101 29.7 0.0
05 13:55 SE 14 G 22 10.00 Mostly Cloudy SCT045 SCT300 SCT340 BKN370 91.6 73 55% 100 29.7 0.0
05 13:35 S 15 G 25 10.00 Partly Cloudy FEW043 SCT340 SCT370 91.6 72.3 53% 100 29.71 0.0
05 13:15 S 17 G 24 10.00 Partly Cloudy SCT041 90.3 73 57% 99 29.72 0.0
05 12:55 S 16 10.00 Partly Cloudy SCT039 90.1 72.9 57% 98 29.72 0.0
05 12:35 S 15 G 24 10.00 A Few Clouds FEW037 89.6 73.2 59% 98 29.73 0.0
05 12:15 S 14 G 21 10.00 A Few Clouds FEW035 88.7 73.2 60% 97 29.74 0.0
05 11:55 SE 16 10.00 Partly Cloudy SCT032 88 73.4 62% 96 29.74 0.0
05 11:35 S 15 G 22 10.00 A Few Clouds FEW031 87.1 73.6 64% 95 29.75 0.0
05 11:15 S 12 G 21 10.00 A Few Clouds FEW030 86.4 73.8 66% 94 29.75 0.0
05 10:55 S 15 10.00 A Few Clouds FEW330 85.1 73.6 69% 92 29.75 0.0
05 10:35 S 17 10.00 A Few Clouds FEW023 84.4 73.8 71% 91 29.75 0.0
05 10:15 S 18 10.00 A Few Clouds FEW022 83.3 73.8 73% 90 29.75 0.0
05 09:55 S 16 10.00 Mostly Cloudy BKN020 81.5 73.4 77% 87 29.75 0.0
05 09:35 S 15 G 23 10.00 Mostly Cloudy BKN019 80.4 73.6 80% 85 29.75 0.0
05 09:15 S 14 10.00 Overcast OVC017 79.7 73.4 81% 84 29.76 0.0
05 08:55 S 17 G 21 10.00 Mostly Cloudy BKN016 79 73.6 84% 82 29.76 0.0
05 08:35 S 12 10.00 Partly Cloudy SCT020 77.9 74.1 88% 80 29.76 0.0
05 08:15 S 10 9.00 Overcast OVC020 76.6 73.8 91% 77 29.75 0.0
05 07:55 S 8 9.00 Overcast OVC019 75.2 73.2 94% 74 29.75 0.0
05 07:35 S 7 9.00 Overcast OVC020 74.3 72.7 95% 29.75 0.0
05 07:15 S 7 10.00 Overcast OVC021 73.9 72.3 95% 29.75 0.0
05 06:55 SE 6 10.00 Overcast OVC019 73.8 72.3 95% 29.74 0.0
05 06:35 SE 6 10.00 Overcast OVC019 73.8 72 94% 29.74 0.0
05 06:15 SE 7 10.00 Overcast OVC019 73.6 71.8 94% 29.74 0.0
05 05:55 SE 8 10.00 Overcast OVC020 73.4 71.6 94% 29.74 0.0
05 05:35 SE 7 10.00 Overcast OVC020 73.4 71.4 94% 29.74 0.0
05 05:15 S 8 10.00 Overcast OVC018 73.2 71.4 94% 29.74 0.0
05 04:55 S 9 10.00 Overcast OVC018 72.9 71.1 94% 29.74 0.0
05 04:35 S 9 10.00 Overcast OVC018 72.7 70.9 94% 29.75 0.0
05 04:15 S 9 10.00 Overcast OVC017 72.5 70.5 94% 29.75 0.0
05 03:55 S 8 10.00 Overcast OVC017 72.3 70.2 93% 29.76 0.0
05 03:35 S 7 10.00 Overcast BKN016 OVC022 72.5 70 92% 29.77 0.0
05 03:15 S 7 10.00 Overcast OVC022 72.1 70.3 94% 29.77 0.0
05 02:55 SE 7 10.00 Overcast OVC021 71.8 70 94% 29.77 0.0
05 02:35 SE 6 10.00 Overcast OVC021 71.6 69.8 94% 29.79 0.0
05 02:15 SE 5 10.00 Mostly Cloudy BKN022 71.4 69.3 93% 29.79 0.0
05 01:55 SE 5 10.00 A Few Clouds FEW025 71.4 68.9 92% 29.8 0.0
05 01:35 SE 6 10.00 Partly Cloudy SCT026 71.8 69.3 92% 29.81 0.0
05 01:15 SE 6 10.00 Fair CLR 71.8 69.1 91% 29.81 0.0
05 00:55 SE 7 10.00 Fair CLR 72 69.3 91% 29.82 0.0
05 00:35 SE 7 10.00 Fair CLR 72.1 69.1 90% 29.82 0.0
05 00:15 SE 8 10.00 A Few Clouds FEW028 72.5 69.1 89% 29.83 0.0
04 23:55 SE 9 10.00 A Few Clouds FEW028 72.9 69.1 88% 29.84 0.0
04 23:35 SE 8 10.00 Fair CLR 73 69.3 88% 29.83 0.0
04 23:15 S 10 10.00 Fair CLR 73.4 69.3 87% 29.83 0.0
04 22:55 SE 10 10.00 Fair CLR 73.6 69.1 86% 29.83 0.0
04 22:35 SE 8 10.00 Fair CLR 73.9 69.1 85% 29.83 0.0
04 22:15 SE 8 10.00 Fair CLR 74.3 69.1 84% 29.83 0.0
04 21:55 SE 10 10.00 Fair CLR 74.8 69.3 83% 29.82 0.0
04 21:35 SE 10 10.00 Fair CLR 75.2 69.3 82% 76 29.82 0.0
04 21:15 SE 10 10.00 Fair CLR 76.1 69.3 79% 77 29.81 0.0
04 20:55 SE 10 10.00 Fair CLR 76.6 69.3 78% 78 29.8 0.0
04 20:35 SE 12 10.00 Fair CLR 77.5 69.1 75% 79 29.8 0.0
04 20:15 SE 9 10.00 Fair CLR 78.4 69.1 73% 81 29.79 0.0
04 19:55 SE 16 10.00 Fair CLR 79.3 69.3 71% 82 29.79 0.0
04 19:35 SE 16 G 21 10.00 A Few Clouds FEW039 80.4 69.4 69% 84 29.8 0.0
04 19:15 Calm 10.00 A Few Clouds FEW039 83.1 69.6 64% 87 29.8 0.0
04 18:55 SE 12 10.00 A Few Clouds FEW050 84.4 68.5 59% 88 29.8 0.0
04 18:35 S 14 10.00 Fair CLR 84 68.4 59% 87 29.8 0.0
04 18:15 S 10 10.00 A Few Clouds FEW055 83.8 68.2 59% 87 29.8 0.0
04 17:55 S 12 10.00 Mostly Cloudy BKN055 83.7 67.6 59% 87 29.81 0.0
04 17:35 SE 14 10.00 Partly Cloudy SCT055 84.7 68.4 58% 88 29.81 0.0
04 17:15 S 14 10.00 Partly Cloudy SCT050 85.8 68.2 56% 89 29.82 0.0
04 16:55 SE 12 10.00 Overcast OVC049 86 68.2 55% 90 29.82 0.0
04 16:35 SE 13 10.00 Overcast SCT044 OVC055 85.3 68 56% 89 29.82 0.0
04 16:15 SE 10 10.00 Overcast FEW045 OVC055 85.5 67.6 55% 89 29.83 0.0
04 15:55 S 14 10.00 Mostly Cloudy BKN055 85.3 67.6 56% 88 29.84 0.0
04 15:35 S 14 10.00 Mostly Cloudy FEW042 BKN055 85.3 67.5 55% 88 29.85 0.0
04 15:15 S 9 10.00 Overcast FEW042 OVC055 84.2 67.3 57% 87 29.86 0.0
04 14:55 S 10 10.00 Overcast FEW042 OVC055 83.8 67.5 58% 87 29.87 0.0
04 14:35 S 12 10.00 Overcast BKN041 OVC055 84.4 67.5 57% 87 29.87 0.0
04 14:15 S 12 10.00 Overcast SCT042 OVC055 84.4 67.5 57% 87 29.88 0.0
04 13:55 S 10 10.00 Overcast SCT042 OVC050 83.7 67.5 58% 87 29.89 0.0
04 13:35 S 10 10.00 Overcast BKN042 OVC050 82 67.1 61% 85 29.89 0.0
04 13:15 S 9 10.00 Overcast BKN042 OVC050 81.7 66.7 61% 84 29.9 0.0
04 12:55 S 13 10.00 Overcast BKN040 OVC049 81.1 66.7 62% 84 29.91 0.0
04 12:35 S 10 10.00 Overcast BKN039 OVC049 81 67.1 63% 83 29.91 0.0
04 12:15 S 14 10.00 Overcast BKN041 OVC048 80.6 66.7 63% 83 29.92 0.0
04 11:55 S 15 10.00 Overcast BKN040 OVC047 80.2 66.6 63% 82 29.93 0.0
04 11:35 S 13 10.00 Overcast OVC040 80.4 67.3 64% 83 29.93 0.0
04 11:15 S 15 10.00 Overcast SCT035 OVC043 80.8 66.9 63% 83 29.93 0.0
04 10:55 S 13 10.00 Mostly Cloudy BKN032 79.7 66.7 65% 82 29.93 0.0
04 10:35 S 15 10.00 Mostly Cloudy BKN028 BKN033 80.1 67.5 66% 83 29.93 0.0
04 10:15 S 18 10.00 Mostly Cloudy BKN027 79.2 67.5 68% 81 29.94 0.0
04 09:55 SE 16 G 25 10.00 Partly Cloudy SCT025 77.9 67.5 70% 80 29.94 0.0
04 09:35 SE 15 G 23 10.00 Partly Cloudy SCT025 77 67.6 73% 79 29.95 0.0
04 09:15 S 12 G 17 10.00 Fair CLR 75.6 67.6 77% 77 29.95 0.0
04 08:55 SE 10 10.00 Fair CLR 73.2 67.1 81% 29.95 0.0
04 08:35 SE 12 10.00 Fair CLR 70.2 66.7 89% 29.95 0.0
04 08:15 SE 7 10.00 Fair CLR 67.5 66 95% 29.95 0.0
04 07:55 SE 6 9.00 Fair CLR 65.3 64.6 98% 29.94 0.0
04 07:35 SE 5 10.00 Fair CLR 63 62.4 98% 29.95 0.0
04 07:15 SE 5 8.00 Fair CLR 61.3 60.4 97% 29.95 0.0
Date Time (cdt) Wind (mph) Vis. (mi.) Weather Sky Cond. Air Dwpt Max. Min. Relative Humidity Wind Chill (°F) Heat Index (°F) altimeter (in) sea level (mb) 1 hr 3 hr 6 hr
6 hour
Temperature (ºF) Pressure Precipitation (in)